createdAt,value
2018-09-14T00:03:36.737Z,1.9
2018-09-14T00:13:59.143Z,1.5
2018-09-14T00:24:12.976Z,1.7
2018-09-14T00:34:35.504Z,1.8
2018-09-14T00:45:23.514Z,2.1
2018-09-14T00:56:19.456Z,2.3
2018-09-14T01:06:33.277Z,1.3
2018-09-14T01:17:21.973Z,2.2
2018-09-14T01:28:06.936Z,4.3
2018-09-14T01:38:51.838Z,2.9
2018-09-14T01:49:50.601Z,2.7
2018-09-14T02:10:24.287Z,1.6
2018-09-14T02:20:47.368Z,1.2
2018-09-14T02:31:01.328Z,1.8
2018-09-14T02:41:22.485Z,2.4
2018-09-14T02:51:35.980Z,1.7
2018-09-14T03:12:09.761Z,2.4
2018-09-14T03:22:34.452Z,4.4
2018-09-14T03:32:45.864Z,1.9
2018-09-14T03:43:13.417Z,2.0
2018-09-14T03:53:24.396Z,2.6
2018-09-14T04:03:45.466Z,2.6
2018-09-14T04:13:58.761Z,2.1
2018-09-14T04:24:43.433Z,4.5
2018-09-14T04:35:30.253Z,3.0
2018-09-14T04:45:51.198Z,2.6
2018-09-14T04:56:05.291Z,2.8
2018-09-14T05:06:19.753Z,2.9
2018-09-14T05:17:04.834Z,4.3
2018-09-14T05:27:19.777Z,2.1
2018-09-14T05:37:33.660Z,2.9
2018-09-14T05:58:05.588Z,3.8
2018-09-14T06:08:19.311Z,4.6
2018-09-14T06:19:16.107Z,7.2
2018-09-14T06:29:30.551Z,4.5
2018-09-14T06:40:15.760Z,11.8
2018-09-14T06:51:00.397Z,12.3
2018-09-14T07:01:45.282Z,14.5
2018-09-14T07:11:58.668Z,5.4
2018-09-14T07:22:13.385Z,5.2
2018-09-14T07:32:26.875Z,3.0
2018-09-14T07:43:13.898Z,4.0
2018-09-14T07:53:34.794Z,3.6
2018-09-14T08:03:48.277Z,1.8
2018-09-14T08:14:02.772Z,1.7
2018-09-14T08:24:17.454Z,1.4
2018-09-14T08:35:02.446Z,2.1
2018-09-14T08:45:48.184Z,1.7
2018-09-14T08:56:51.544Z,1.7
2018-09-14T09:07:05.231Z,1.5
2018-09-14T09:18:01.620Z,1.5
2018-09-14T09:29:04.283Z,1.9
2018-09-14T09:49:54.577Z,2.2
2018-09-14T10:00:06.215Z,1.9
2018-09-14T10:10:20.676Z,2.3
2018-09-14T10:20:35.047Z,1.9
2018-09-14T10:30:54.211Z,3.5
2018-09-14T10:41:15.351Z,2.9
2018-09-14T10:51:29.558Z,2.7
2018-09-14T11:01:43.840Z,2.7
2018-09-14T11:12:03.901Z,3.1
2018-09-14T11:22:17.990Z,2.0
2018-09-14T11:33:08.056Z,2.2
2018-09-14T11:43:54.828Z,2.7
2018-09-14T11:54:07.219Z,2.2
2018-09-14T12:04:53.556Z,1.7
2018-09-14T12:15:04.908Z,2.9
2018-09-14T12:25:23.573Z,2.0
2018-09-14T12:35:37.694Z,2.5
2018-09-14T12:45:49.421Z,2.3
2018-09-14T12:56:21.593Z,2.0
2018-09-14T13:09:22.567Z,3.0
2018-09-14T13:20:24.563Z,2.7
2018-09-14T13:31:12.804Z,3.3
2018-09-14T13:42:02.454Z,2.9
2018-09-14T13:53:08.301Z,3.2
2018-09-14T14:03:25.187Z,2.0
2018-09-14T14:14:18.042Z,2.6
2018-09-14T14:24:53.135Z,2.3
2018-09-14T14:46:36.130Z,2.6
2018-09-14T14:56:49.659Z,2.6
2018-09-14T15:07:34.810Z,2.6
2018-09-14T15:18:43.057Z,5.1
2018-09-14T15:29:14.582Z,3.7
2018-09-14T15:50:45.978Z,4.4
2018-09-14T16:01:42.998Z,6.2
2018-09-14T16:12:44.104Z,5.0
2018-09-14T16:23:33.339Z,4.7
2018-09-14T16:44:03.521Z,4.0
2018-09-14T16:54:48.425Z,3.6
2018-09-14T17:05:11.282Z,2.9
2018-09-14T17:15:41.053Z,2.9
2018-09-14T17:25:54.883Z,2.3
2018-09-14T17:36:47.770Z,4.2
2018-09-14T17:47:34.635Z,3.1
2018-09-14T17:58:00.767Z,3.6
2018-09-14T18:08:21.885Z,3.0
2018-09-14T18:18:36.089Z,4.1
2018-09-14T18:28:56.382Z,3.9
2018-09-14T18:39:28.800Z,3.2
2018-09-14T18:49:42.743Z,5.0
2018-09-14T19:00:29.384Z,4.7
2018-09-14T19:11:14.591Z,3.7
2018-09-14T19:21:42.095Z,2.8
2018-09-14T19:32:11.325Z,2.3
2018-09-14T19:42:23.730Z,2.5
2018-09-14T19:52:47.355Z,3.1
2018-09-14T20:04:24.845Z,2.1
2018-09-14T20:15:10.583Z,2.3
2018-09-14T20:25:22.034Z,1.7
2018-09-14T20:35:56.302Z,2.4
2018-09-14T20:57:05.287Z,2.1
2018-09-14T21:07:58.760Z,2.1
2018-09-14T21:19:19.939Z,1.6
2018-09-14T21:29:57.269Z,1.1
2018-09-14T21:53:09.639Z,0.9
2018-09-14T22:03:27.152Z,1.2
2018-09-14T22:24:30.185Z,1.8
2018-09-14T22:34:50.382Z,1.0
2018-09-14T23:05:37.198Z,1.3
2018-09-14T23:16:28.310Z,1.0
